createdAt,value
2023-07-18T00:01:33.381Z,100.00
2023-07-18T00:04:00.232Z,100.00
2023-07-18T00:06:27.154Z,100.00
2023-07-18T00:08:53.858Z,100.00
2023-07-18T00:11:22.959Z,100.00
2023-07-18T00:13:49.604Z,100.00
2023-07-18T00:16:16.427Z,100.00
2023-07-18T00:18:43.201Z,100.00
2023-07-18T00:21:09.786Z,100.00
2023-07-18T00:23:36.407Z,100.00
2023-07-18T00:26:03.127Z,100.00
2023-07-18T00:28:29.752Z,100.00
2023-07-18T00:30:56.462Z,100.00
2023-07-18T00:33:23.876Z,100.00
2023-07-18T00:35:50.605Z,100.00
2023-07-18T00:38:17.659Z,100.00
2023-07-18T00:40:44.843Z,100.00
2023-07-18T00:43:18.489Z,100.00
2023-07-18T00:45:45.704Z,100.00
2023-07-18T00:48:12.610Z,100.00
2023-07-18T00:50:39.582Z,100.00
2023-07-18T00:53:06.274Z,100.00
2023-07-18T00:55:33.138Z,100.00
2023-07-18T00:57:59.889Z,100.00
2023-07-18T01:00:26.672Z,100.00
2023-07-18T01:02:54.666Z,100.00
2023-07-18T01:05:21.575Z,100.00
2023-07-18T01:07:48.438Z,100.00
2023-07-18T01:10:18.463Z,100.00
2023-07-18T01:12:45.947Z,100.00
2023-07-18T01:15:14.220Z,100.00
2023-07-18T01:17:46.204Z,100.00
2023-07-18T01:20:17.813Z,100.00
2023-07-18T01:22:45.347Z,100.00
2023-07-18T01:25:13.306Z,100.00
2023-07-18T01:27:40.071Z,100.00
2023-07-18T01:30:07.504Z,100.00
2023-07-18T01:32:35.350Z,100.00
2023-07-18T01:35:04.968Z,100.00
2023-07-18T01:37:31.626Z,100.00
2023-07-18T01:39:58.846Z,100.00
2023-07-18T01:42:25.466Z,100.00
2023-07-18T01:44:52.238Z,100.00
2023-07-18T01:47:18.987Z,100.00
2023-07-18T01:49:45.663Z,100.00
2023-07-18T01:52:12.309Z,100.00
2023-07-18T01:54:38.912Z,100.00
2023-07-18T01:57:06.084Z,100.00
2023-07-18T01:59:32.685Z,100.00
2023-07-18T02:01:59.474Z,100.00
2023-07-18T02:04:27.148Z,100.00
2023-07-18T02:06:55.091Z,100.00
2023-07-18T02:09:21.788Z,100.00
2023-07-18T02:11:48.683Z,100.00
2023-07-18T02:14:17.034Z,100.00
2023-07-18T02:16:43.745Z,100.00
2023-07-18T02:19:10.360Z,100.00
2023-07-18T02:21:36.998Z,100.00
2023-07-18T02:24:04.516Z,100.00
2023-07-18T02:26:31.212Z,100.00
2023-07-18T02:28:57.933Z,100.00
2023-07-18T02:31:24.600Z,100.00
2023-07-18T02:33:51.295Z,100.00
2023-07-18T02:36:19.197Z,100.00
2023-07-18T02:38:45.893Z,100.00
2023-07-18T02:41:12.488Z,100.00
2023-07-18T02:43:39.245Z,100.00
2023-07-18T02:46:05.915Z,100.00
2023-07-18T02:48:32.600Z,100.00
2023-07-18T02:50:59.238Z,100.00
2023-07-18T02:53:25.902Z,100.00
2023-07-18T02:55:53.043Z,100.00
2023-07-18T02:58:19.736Z,100.00
2023-07-18T03:00:47.175Z,100.00
2023-07-18T03:03:14.059Z,100.00
2023-07-18T03:05:40.841Z,100.00
2023-07-18T03:08:07.576Z,100.00
2023-07-18T03:10:34.236Z,100.00
2023-07-18T03:13:00.862Z,100.00
2023-07-18T03:15:27.541Z,100.00
2023-07-18T03:17:54.169Z,100.00
2023-07-18T03:20:21.232Z,100.00
2023-07-18T03:22:48.665Z,100.00
2023-07-18T03:25:15.733Z,100.00
2023-07-18T03:27:42.619Z,100.00
2023-07-18T03:30:11.940Z,100.00
2023-07-18T03:32:39.608Z,100.00
2023-07-18T03:35:07.524Z,100.00
2023-07-18T03:37:34.961Z,100.00
2023-07-18T03:40:01.703Z,100.00
2023-07-18T03:42:28.475Z,100.00
2023-07-18T03:44:55.143Z,100.00
2023-07-18T03:47:22.082Z,100.00
2023-07-18T03:49:48.774Z,100.00
2023-07-18T03:52:16.151Z,100.00
2023-07-18T03:54:43.098Z,100.00
2023-07-18T03:57:09.921Z,100.00
2023-07-18T03:59:36.506Z,100.00
2023-07-18T04:02:03.207Z,100.00
2023-07-18T04:04:31.236Z,100.00
2023-07-18T04:06:57.936Z,100.00
2023-07-18T04:09:24.588Z,100.00
2023-07-18T04:11:51.243Z,100.00
2023-07-18T04:14:17.877Z,100.00
2023-07-18T04:16:44.690Z,100.00
2023-07-18T04:19:11.421Z,100.00
2023-07-18T04:21:38.099Z,100.00
2023-07-18T04:24:06.078Z,100.00
2023-07-18T04:26:32.853Z,100.00
2023-07-18T04:28:59.584Z,100.00
2023-07-18T04:31:27.484Z,100.00
2023-07-18T04:33:54.285Z,100.00
2023-07-18T04:36:20.919Z,100.00
2023-07-18T04:38:47.580Z,100.00
2023-07-18T04:41:14.418Z,100.00
2023-07-18T04:43:41.171Z,100.00
2023-07-18T04:46:09.431Z,100.00
2023-07-18T04:48:36.099Z,100.00
2023-07-18T04:51:02.846Z,100.00
2023-07-18T04:53:30.416Z,100.00
2023-07-18T04:55:57.279Z,100.00
2023-07-18T04:58:26.116Z,100.00
2023-07-18T05:00:54.633Z,100.00
2023-07-18T05:03:21.922Z,100.00
2023-07-18T05:05:48.656Z,100.00
2023-07-18T05:08:15.273Z,100.00
2023-07-18T05:10:42.092Z,100.00
2023-07-18T05:13:08.808Z,100.00
2023-07-18T05:15:35.716Z,100.00
2023-07-18T05:18:02.541Z,100.00
2023-07-18T05:20:30.846Z,100.00
2023-07-18T05:22:57.611Z,100.00
2023-07-18T05:25:24.301Z,100.00
2023-07-18T05:27:50.958Z,100.00
2023-07-18T05:30:18.818Z,100.00
2023-07-18T05:32:46.015Z,100.00
2023-07-18T05:35:15.305Z,100.00
2023-07-18T05:37:42.554Z,100.00
2023-07-18T05:40:12.509Z,100.00
2023-07-18T05:42:42.828Z,100.00
2023-07-18T05:45:09.835Z,100.00
2023-07-18T05:47:37.131Z,100.00
2023-07-18T05:50:05.877Z,100.00
2023-07-18T05:52:32.765Z,100.00
2023-07-18T05:54:59.704Z,100.00
2023-07-18T05:57:26.441Z,100.00
2023-07-18T05:59:53.114Z,100.00
2023-07-18T06:02:21.291Z,100.00
2023-07-18T06:04:48.536Z,100.00
2023-07-18T06:07:16.346Z,100.00
2023-07-18T06:09:43.538Z,100.00
2023-07-18T06:12:10.577Z,100.00
2023-07-18T06:14:37.199Z,100.00
2023-07-18T06:17:04.643Z,100.00
2023-07-18T06:19:31.494Z,100.00
2023-07-18T06:21:58.405Z,100.00
2023-07-18T06:24:25.756Z,100.00
2023-07-18T06:26:52.644Z,100.00
2023-07-18T06:29:19.884Z,100.00
2023-07-18T06:31:47.344Z,100.00
2023-07-18T06:34:13.990Z,100.00
2023-07-18T06:36:40.716Z,100.00
2023-07-18T06:39:07.411Z,100.00
2023-07-18T06:41:34.462Z,100.00
2023-07-18T06:44:01.300Z,100.00
2023-07-18T06:46:28.829Z,100.00
2023-07-18T06:48:55.502Z,100.00
2023-07-18T06:51:24.061Z,100.00
2023-07-18T06:53:50.734Z,100.00
2023-07-18T06:56:17.350Z,100.00
2023-07-18T06:58:44.055Z,100.00
2023-07-18T07:01:11.830Z,100.00
2023-07-18T07:03:38.728Z,100.00
2023-07-18T07:06:12.466Z,100.00
2023-07-18T07:08:39.120Z,100.00
2023-07-18T07:11:06.841Z,100.00
2023-07-18T07:13:34.781Z,100.00
2023-07-18T07:16:02.191Z,100.00
2023-07-18T07:18:28.858Z,100.00
2023-07-18T07:20:55.841Z,100.00
2023-07-18T07:23:22.502Z,100.00
2023-07-18T07:25:49.235Z,100.00
2023-07-18T07:28:15.978Z,100.00
2023-07-18T07:30:43.794Z,100.00
2023-07-18T07:33:10.603Z,100.00
2023-07-18T07:35:37.207Z,100.00
2023-07-18T07:38:03.873Z,100.00
2023-07-18T07:40:31.087Z,100.00
2023-07-18T07:42:57.784Z,100.00
2023-07-18T07:45:24.520Z,100.00
2023-07-18T07:47:51.223Z,100.00
2023-07-18T07:50:17.977Z,100.00
2023-07-18T07:52:44.760Z,100.00
2023-07-18T07:55:12.495Z,100.00
2023-07-18T07:57:39.815Z,100.00
2023-07-18T08:00:08.326Z,100.00
2023-07-18T08:02:35.621Z,100.00
2023-07-18T08:05:02.449Z,100.00
2023-07-18T08:07:29.333Z,100.00
2023-07-18T08:09:56.284Z,100.00
2023-07-18T08:12:23.340Z,100.00
2023-07-18T08:14:50.241Z,100.00
2023-07-18T08:17:18.213Z,100.00
2023-07-18T08:19:44.928Z,100.00
2023-07-18T08:22:11.771Z,100.00
2023-07-18T08:24:39.254Z,100.00
2023-07-18T08:27:06.489Z,100.00
2023-07-18T08:29:34.623Z,100.00
2023-07-18T08:32:01.555Z,100.00
2023-07-18T08:34:28.359Z,100.00
2023-07-18T08:36:55.027Z,100.00
2023-07-18T08:39:21.686Z,100.00
2023-07-18T08:41:52.793Z,100.00
2023-07-18T08:44:20.336Z,100.00
2023-07-18T08:46:47.140Z,100.00
2023-07-18T08:49:15.290Z,100.00
2023-07-18T08:51:45.511Z,100.00
2023-07-18T08:54:13.120Z,100.00
2023-07-18T08:56:45.093Z,100.00
2023-07-18T08:59:12.166Z,100.00
2023-07-18T09:01:49.127Z,100.00
2023-07-18T09:04:16.225Z,100.00
2023-07-18T09:06:59.317Z,100.00
2023-07-18T09:09:27.299Z,100.00
2023-07-18T09:11:55.485Z,100.00
2023-07-18T09:14:29.696Z,100.00
2023-07-18T09:16:56.903Z,100.00
2023-07-18T09:19:40.833Z,100.00
2023-07-18T09:22:11.735Z,100.00
2023-07-18T09:24:38.613Z,100.00
2023-07-18T09:27:09.486Z,100.00
2023-07-18T09:29:36.189Z,100.00
2023-07-18T09:32:02.972Z,100.00
2023-07-18T09:34:29.757Z,98.24
2023-07-18T09:37:00.922Z,94.17
2023-07-18T09:39:28.218Z,94.46
2023-07-18T09:41:56.024Z,94.86
2023-07-18T09:44:33.111Z,93.43
2023-07-18T09:47:02.181Z,89.94
2023-07-18T09:49:33.052Z,93.37
2023-07-18T09:52:04.159Z,85.78
2023-07-18T09:54:34.153Z,88.52
2023-07-18T09:57:03.966Z,86.27
2023-07-18T09:59:30.900Z,88.69
2023-07-18T10:01:57.684Z,87.59
2023-07-18T10:04:24.751Z,84.99
2023-07-18T10:06:51.710Z,84.80
2023-07-18T10:09:18.450Z,86.57
2023-07-18T10:12:00.553Z,83.43
2023-07-18T10:14:54.351Z,85.89
2023-07-18T10:17:41.661Z,88.09
2023-07-18T10:20:24.148Z,80.22
2023-07-18T10:22:51.806Z,79.32
2023-07-18T10:25:18.892Z,79.71
2023-07-18T10:27:46.159Z,82.48
2023-07-18T10:30:17.336Z,81.29
2023-07-18T10:32:53.685Z,82.18
2023-07-18T10:35:21.542Z,79.33
2023-07-18T10:37:53.542Z,80.85
2023-07-18T10:40:44.084Z,81.50
2023-07-18T10:43:17.084Z,81.81
2023-07-18T10:45:44.293Z,80.15
2023-07-18T10:48:14.868Z,74.84
2023-07-18T10:50:42.795Z,77.65
2023-07-18T10:53:22.349Z,80.17
2023-07-18T10:55:49.555Z,77.27
2023-07-18T10:58:17.793Z,78.18
2023-07-18T11:00:44.592Z,72.62
2023-07-18T11:03:22.447Z,73.84
2023-07-18T11:05:52.939Z,73.47
2023-07-18T11:08:29.988Z,71.37
2023-07-18T11:11:01.747Z,72.85
2023-07-18T11:13:34.997Z,72.04
2023-07-18T11:16:09.081Z,71.38
2023-07-18T11:18:36.627Z,69.90
2023-07-18T11:21:04.729Z,71.36
2023-07-18T11:23:31.871Z,71.65
2023-07-18T11:25:58.616Z,70.32
2023-07-18T11:28:34.811Z,70.03
2023-07-18T11:31:01.596Z,68.81
2023-07-18T11:33:29.315Z,68.21
2023-07-18T11:35:57.554Z,70.11
2023-07-18T11:38:25.738Z,66.82
2023-07-18T11:40:52.987Z,66.65
2023-07-18T11:43:19.787Z,66.33
2023-07-18T11:45:47.716Z,66.40
2023-07-18T11:48:17.259Z,64.81
2023-07-18T11:50:46.760Z,63.77
2023-07-18T11:53:13.461Z,66.13
2023-07-18T11:55:40.098Z,64.10
2023-07-18T11:58:09.225Z,65.06
2023-07-18T12:00:36.473Z,62.56
2023-07-18T12:03:04.024Z,61.26
2023-07-18T12:05:30.766Z,59.31
2023-07-18T12:07:57.466Z,63.60
2023-07-18T12:10:26.170Z,62.03
2023-07-18T12:12:53.143Z,64.74
2023-07-18T12:15:19.881Z,61.03
2023-07-18T12:17:48.232Z,58.75
2023-07-18T12:20:15.418Z,60.17
2023-07-18T12:22:42.241Z,62.03
2023-07-18T12:25:09.333Z,59.27
2023-07-18T12:27:36.451Z,61.72
2023-07-18T12:30:03.455Z,61.98
2023-07-18T12:32:32.305Z,59.81
2023-07-18T12:34:59.322Z,60.70
2023-07-18T12:37:26.063Z,60.83
2023-07-18T12:39:52.819Z,59.76
2023-07-18T12:42:19.521Z,58.38
2023-07-18T12:44:46.421Z,55.93
2023-07-18T12:47:13.488Z,59.35
2023-07-18T12:52:09.977Z,56.29
2023-07-18T12:54:36.647Z,55.33
2023-07-18T12:57:04.241Z,55.66
2023-07-18T12:59:30.917Z,55.81
2023-07-18T13:01:57.776Z,55.46
2023-07-18T13:04:25.622Z,55.73
2023-07-18T13:06:52.334Z,55.34
2023-07-18T13:09:19.059Z,56.03
2023-07-18T13:11:46.326Z,55.66
2023-07-18T13:14:17.359Z,54.06
2023-07-18T13:16:44.057Z,55.63
2023-07-18T13:19:10.798Z,55.41
2023-07-18T13:21:37.551Z,54.08
2023-07-18T13:24:04.502Z,52.58
2023-07-18T13:26:31.378Z,52.33
2023-07-18T13:28:58.763Z,53.49
2023-07-18T13:31:25.544Z,52.92
2023-07-18T13:33:52.374Z,54.90
2023-07-18T13:36:19.523Z,50.38
2023-07-18T13:38:46.771Z,52.63
2023-07-18T13:41:13.976Z,52.62
2023-07-18T13:43:40.911Z,51.12
2023-07-18T13:46:07.683Z,54.05
2023-07-18T13:48:34.767Z,51.87
2023-07-18T13:51:01.674Z,53.66
2023-07-18T13:53:28.534Z,51.75
2023-07-18T13:55:56.188Z,51.51
2023-07-18T13:58:23.348Z,50.89
2023-07-18T14:00:50.241Z,52.57
2023-07-18T14:03:33.454Z,50.63
2023-07-18T14:06:02.482Z,52.97
2023-07-18T14:08:30.861Z,53.41
2023-07-18T14:10:57.767Z,53.26
2023-07-18T14:13:24.680Z,52.30
2023-07-18T14:15:51.862Z,51.76
2023-07-18T14:18:18.782Z,53.36
2023-07-18T14:20:46.222Z,54.31
2023-07-18T14:23:13.247Z,53.67
2023-07-18T14:25:40.046Z,55.94
2023-07-18T14:28:06.724Z,55.35
2023-07-18T14:30:33.545Z,55.05
2023-07-18T14:33:01.056Z,56.17
2023-07-18T14:35:29.086Z,56.00
2023-07-18T14:37:55.758Z,56.47
2023-07-18T14:40:22.417Z,55.83
2023-07-18T14:42:49.066Z,55.21
2023-07-18T14:45:15.774Z,55.96
2023-07-18T14:47:43.023Z,58.19
2023-07-18T14:50:11.077Z,56.10
2023-07-18T14:52:38.669Z,55.86
2023-07-18T14:55:05.893Z,55.56
2023-07-18T14:57:32.662Z,57.09
2023-07-18T14:59:59.470Z,57.56
2023-07-18T15:02:26.219Z,67.43
2023-07-18T15:04:53.002Z,69.71
2023-07-18T15:07:19.806Z,71.72
2023-07-18T15:09:47.087Z,73.49
2023-07-18T15:12:14.527Z,73.91
2023-07-18T15:14:41.340Z,75.25
2023-07-18T15:17:08.528Z,76.60
2023-07-18T15:19:35.408Z,77.88
2023-07-18T15:22:02.792Z,79.79
2023-07-18T15:24:29.491Z,80.80
2023-07-18T15:26:56.989Z,81.24
2023-07-18T15:29:23.903Z,82.15
2023-07-18T15:31:50.687Z,82.71
2023-07-18T15:34:17.478Z,84.82
2023-07-18T15:36:46.440Z,84.58
2023-07-18T15:39:13.689Z,85.30
2023-07-18T15:41:40.514Z,85.73
2023-07-18T15:44:07.398Z,86.42
2023-07-18T15:46:37.225Z,88.56
2023-07-18T15:49:05.296Z,86.67
2023-07-18T15:51:32.294Z,86.38
2023-07-18T15:53:59.092Z,85.88
2023-07-18T15:56:25.761Z,86.68
2023-07-18T15:58:53.633Z,85.31
2023-07-18T16:01:20.662Z,84.76
2023-07-18T16:03:47.803Z,85.01
2023-07-18T16:06:15.016Z,86.07
2023-07-18T16:08:41.810Z,86.31
2023-07-18T16:11:08.568Z,88.44
2023-07-18T16:13:36.377Z,87.05
2023-07-18T16:16:05.514Z,86.92
2023-07-18T16:18:32.381Z,86.85
2023-07-18T16:20:59.155Z,85.93
2023-07-18T16:23:26.041Z,86.74
2023-07-18T16:25:52.804Z,84.97
2023-07-18T16:28:19.607Z,84.71
2023-07-18T16:30:46.420Z,83.18
2023-07-18T16:33:13.449Z,84.81
2023-07-18T16:35:40.435Z,85.26
2023-07-18T16:38:07.608Z,85.38
2023-07-18T16:40:36.806Z,85.53
2023-07-18T16:43:06.096Z,86.66
2023-07-18T16:45:33.007Z,86.93
2023-07-18T16:47:59.877Z,87.69
2023-07-18T16:50:26.694Z,87.89
2023-07-18T16:52:53.551Z,88.07
2023-07-18T16:55:20.277Z,88.47
2023-07-18T16:57:46.914Z,88.63
2023-07-18T17:00:13.993Z,89.11
2023-07-18T17:02:40.660Z,90.23
2023-07-18T17:05:07.630Z,91.24
2023-07-18T17:07:34.297Z,91.82
2023-07-18T17:10:02.247Z,92.04
2023-07-18T17:12:29.069Z,92.34
2023-07-18T17:14:56.504Z,92.86
2023-07-18T17:17:23.361Z,94.17
2023-07-18T17:20:04.664Z,94.75
2023-07-18T17:22:34.452Z,95.92
2023-07-18T17:25:01.256Z,96.86
2023-07-18T17:27:28.633Z,97.66
2023-07-18T17:29:55.359Z,98.27
2023-07-18T17:32:22.159Z,98.51
2023-07-18T17:34:48.984Z,97.91
2023-07-18T17:37:16.210Z,98.21
2023-07-18T17:39:44.592Z,96.77
2023-07-18T17:42:12.438Z,98.08
2023-07-18T17:44:41.168Z,98.84
2023-07-18T17:47:07.922Z,99.81
2023-07-18T17:49:34.597Z,99.46
2023-07-18T17:52:01.402Z,99.13
2023-07-18T17:54:28.880Z,98.92
2023-07-18T17:56:56.066Z,99.44
2023-07-18T17:59:22.865Z,99.38
2023-07-18T18:01:49.693Z,99.53
2023-07-18T18:04:16.531Z,100.00
2023-07-18T18:06:46.305Z,100.00
2023-07-18T18:09:12.998Z,99.91
2023-07-18T18:11:39.672Z,99.35
2023-07-18T18:14:07.127Z,100.00
2023-07-18T18:16:34.857Z,100.00
2023-07-18T18:19:04.175Z,100.00
2023-07-18T18:21:31.880Z,100.00
2023-07-18T18:23:58.615Z,100.00
2023-07-18T18:26:25.902Z,100.00
2023-07-18T18:28:54.324Z,100.00
2023-07-18T18:31:21.325Z,100.00
2023-07-18T18:33:48.411Z,100.00
2023-07-18T18:36:15.287Z,100.00
2023-07-18T18:38:42.835Z,100.00
2023-07-18T18:41:09.563Z,100.00
2023-07-18T18:43:36.305Z,100.00
2023-07-18T18:46:03.169Z,100.00
2023-07-18T18:48:30.184Z,100.00
2023-07-18T18:50:57.302Z,100.00
2023-07-18T18:53:25.696Z,100.00
2023-07-18T18:55:52.406Z,100.00
2023-07-18T18:58:19.915Z,100.00
2023-07-18T19:00:46.684Z,100.00
2023-07-18T19:03:13.538Z,100.00
2023-07-18T19:05:40.305Z,100.00
2023-07-18T19:08:07.020Z,100.00
2023-07-18T19:10:33.753Z,100.00
2023-07-18T19:13:00.712Z,100.00
2023-07-18T19:15:27.698Z,100.00
2023-07-18T19:17:54.411Z,100.00
2023-07-18T19:20:21.182Z,100.00
2023-07-18T19:22:48.260Z,100.00
2023-07-18T19:25:15.411Z,100.00
2023-07-18T19:27:42.242Z,100.00
2023-07-18T19:30:11.255Z,100.00
2023-07-18T19:32:40.309Z,100.00
2023-07-18T19:35:07.419Z,100.00
2023-07-18T19:37:34.743Z,100.00
2023-07-18T19:40:01.416Z,100.00
2023-07-18T19:42:28.136Z,100.00
2023-07-18T19:44:55.195Z,100.00
2023-07-18T19:47:21.949Z,100.00
2023-07-18T19:49:49.972Z,100.00
2023-07-18T19:52:16.719Z,100.00
2023-07-18T19:54:43.456Z,100.00
2023-07-18T19:57:10.112Z,100.00
2023-07-18T19:59:36.705Z,100.00
2023-07-18T20:02:03.464Z,100.00
2023-07-18T20:04:30.315Z,100.00
2023-07-18T20:06:57.046Z,100.00
2023-07-18T20:09:24.045Z,100.00
2023-07-18T20:11:50.769Z,100.00
2023-07-18T20:14:17.444Z,100.00
2023-07-18T20:16:44.140Z,100.00
2023-07-18T20:19:11.461Z,100.00
2023-07-18T20:21:43.097Z,100.00
2023-07-18T20:24:09.965Z,100.00
2023-07-18T20:26:36.744Z,100.00
2023-07-18T20:29:05.615Z,100.00
2023-07-18T20:31:32.473Z,100.00
2023-07-18T20:34:00.714Z,100.00
2023-07-18T20:36:27.630Z,100.00
2023-07-18T20:38:54.294Z,100.00
2023-07-18T20:41:21.262Z,100.00
2023-07-18T20:43:48.106Z,100.00
2023-07-18T20:46:17.040Z,100.00
2023-07-18T20:48:43.751Z,100.00
2023-07-18T20:51:10.404Z,100.00
2023-07-18T20:53:37.188Z,100.00
2023-07-18T20:56:04.272Z,100.00
2023-07-18T20:58:31.644Z,100.00
2023-07-18T21:00:58.450Z,100.00
2023-07-18T21:03:25.298Z,100.00
2023-07-18T21:05:52.196Z,100.00
2023-07-18T21:08:19.558Z,100.00
2023-07-18T21:10:46.296Z,100.00
2023-07-18T21:13:13.300Z,100.00
2023-07-18T21:15:40.124Z,100.00
2023-07-18T21:18:06.909Z,100.00
2023-07-18T21:20:33.764Z,100.00
2023-07-18T21:23:00.794Z,100.00
2023-07-18T21:25:28.301Z,100.00
2023-07-18T21:27:55.022Z,100.00
2023-07-18T21:30:21.834Z,100.00
2023-07-18T21:32:48.553Z,100.00
2023-07-18T21:35:16.050Z,100.00
2023-07-18T21:37:42.692Z,100.00
2023-07-18T21:40:09.960Z,100.00
2023-07-18T21:42:36.685Z,100.00
2023-07-18T21:45:03.543Z,100.00
2023-07-18T21:47:30.466Z,100.00
2023-07-18T21:49:57.140Z,100.00
2023-07-18T21:52:23.948Z,100.00
2023-07-18T21:54:50.680Z,100.00
2023-07-18T21:57:17.753Z,100.00
2023-07-18T21:59:44.701Z,100.00
2023-07-18T22:02:13.022Z,100.00
2023-07-18T22:04:40.141Z,100.00
2023-07-18T22:07:09.234Z,100.00
2023-07-18T22:09:36.344Z,100.00
2023-07-18T22:12:04.472Z,100.00
2023-07-18T22:14:31.230Z,100.00
2023-07-18T22:16:58.065Z,100.00
2023-07-18T22:19:24.742Z,100.00
2023-07-18T22:21:51.456Z,100.00
2023-07-18T22:24:18.205Z,100.00
2023-07-18T22:26:45.231Z,100.00
2023-07-18T22:29:11.941Z,100.00
2023-07-18T22:31:38.853Z,100.00
2023-07-18T22:34:05.590Z,100.00
2023-07-18T22:36:32.318Z,100.00
2023-07-18T22:38:59.028Z,100.00
2023-07-18T22:41:26.230Z,100.00
2023-07-18T22:43:53.218Z,100.00
2023-07-18T22:46:20.032Z,100.00
2023-07-18T22:48:46.780Z,100.00
2023-07-18T22:51:13.467Z,100.00
2023-07-18T22:53:40.312Z,100.00
2023-07-18T22:56:06.991Z,100.00
2023-07-18T22:58:33.913Z,100.00
2023-07-18T23:01:00.650Z,100.00
2023-07-18T23:03:27.419Z,100.00
2023-07-18T23:05:54.195Z,100.00
2023-07-18T23:08:20.786Z,100.00
2023-07-18T23:10:47.975Z,100.00
2023-07-18T23:13:16.345Z,100.00
2023-07-18T23:15:43.246Z,100.00
2023-07-18T23:18:09.930Z,100.00
2023-07-18T23:20:36.715Z,100.00
2023-07-18T23:23:04.169Z,100.00
2023-07-18T23:25:31.035Z,100.00
2023-07-18T23:27:57.828Z,100.00
2023-07-18T23:30:24.515Z,100.00
2023-07-18T23:32:51.257Z,100.00
2023-07-18T23:35:18.037Z,100.00
2023-07-18T23:37:44.702Z,100.00
2023-07-18T23:40:11.476Z,100.00
2023-07-18T23:42:38.650Z,100.00
2023-07-18T23:45:05.777Z,100.00
2023-07-18T23:47:32.481Z,100.00
2023-07-18T23:49:59.264Z,100.00
2023-07-18T23:52:25.891Z,100.00
2023-07-18T23:54:52.501Z,100.00
2023-07-18T23:57:19.127Z,100.00
2023-07-18T23:59:45.748Z,100.00
